Aviation Digital Data Service (ADDS)

Output produced by METARs form (2314 UTC 26 February 2020)
found at http://www.aviationweather.gov/metar/data/
 
METAR text: KONP 262257Z AUTO 34013G16KT 10SM CLR 11/08 A3053 RMK AO2
Conditions at: KONP (NEWPORT , OR, US) observed 2257 UTC 26 February 2020
Temperature: 11.0°C (52°F)
Dewpoint: 8.0°C (46°F) [RH = 82%]
Pressure (altimeter): 30.53 inches Hg (1033.9 mb)
Winds: from the NNW (340 degrees) at 15 MPH (13 knots; 6.7 m/s)
gusting to 18 MPH (16 knots; 8.2 m/s)
Visibility: 10 or more miles (16+ km)
Ceiling: at least 12,000 feet AGL
Clouds: sky clear below 12,000 feet AGL
Weather: automated observation with no human augmentation;
there may or may not be significant weather present at this time

METAR text: KONP 262235Z AUTO 34012KT 10SM CLR 11/07 A3053 RMK AO2
Conditions at: KONP (NEWPORT , OR, US) observed 2235 UTC 26 February 2020
Temperature: 11.0°C (52°F)
Dewpoint: 7.0°C (45°F) [RH = 76%]
Pressure (altimeter): 30.53 inches Hg (1033.9 mb)
Winds: from the NNW (340 degrees) at 14 MPH (12 knots; 6.2 m/s)
Visibility: 10 or more miles (16+ km)
Ceiling: at least 12,000 feet AGL
Clouds: sky clear below 12,000 feet AGL
Weather: automated observation with no human augmentation;
there may or may not be significant weather present at this time

METAR text: KONP 262215Z AUTO 33015KT 10SM CLR 10/07 A3053 RMK AO2
Conditions at: KONP (NEWPORT , OR, US) observed 2215 UTC 26 February 2020
Temperature: 10.0°C (50°F)
Dewpoint: 7.0°C (45°F) [RH = 82%]
Pressure (altimeter): 30.53 inches Hg (1033.9 mb)
Winds: from the NNW (330 degrees) at 17 MPH (15 knots; 7.7 m/s)
Visibility: 10 or more miles (16+ km)
Ceiling: at least 12,000 feet AGL
Clouds: sky clear below 12,000 feet AGL
Weather: automated observation with no human augmentation;
there may or may not be significant weather present at this time

METAR text: KONP 262155Z AUTO 34013KT 10SM CLR 10/07 A3054 RMK AO2
Conditions at: KONP (NEWPORT , OR, US) observed 2155 UTC 26 February 2020
Temperature: 10.0°C (50°F)
Dewpoint: 7.0°C (45°F) [RH = 82%]
Pressure (altimeter): 30.54 inches Hg (1034.3 mb)
Winds: from the NNW (340 degrees) at 15 MPH (13 knots; 6.7 m/s)
Visibility: 10 or more miles (16+ km)
Ceiling: at least 12,000 feet AGL
Clouds: sky clear below 12,000 feet AGL
Weather: automated observation with no human augmentation;
there may or may not be significant weather present at this time

METAR text: KONP 262135Z AUTO 33014KT 10SM CLR 10/07 A3054 RMK AO2
Conditions at: KONP (NEWPORT , OR, US) observed 2135 UTC 26 February 2020
Temperature: 10.0°C (50°F)
Dewpoint: 7.0°C (45°F) [RH = 82%]
Pressure (altimeter): 30.54 inches Hg (1034.3 mb)
Winds: from the NNW (330 degrees) at 16 MPH (14 knots; 7.2 m/s)
Visibility: 10 or more miles (16+ km)
Ceiling: at least 12,000 feet AGL
Clouds: sky clear below 12,000 feet AGL
Weather: automated observation with no human augmentation;
there may or may not be significant weather present at this time

METAR text: KONP 262115Z AUTO 33013G17KT 10SM CLR 10/07 A3054 RMK AO2
Conditions at: KONP (NEWPORT , OR, US) observed 2115 UTC 26 February 2020
Temperature: 10.0°C (50°F)
Dewpoint: 7.0°C (45°F) [RH = 82%]
Pressure (altimeter): 30.54 inches Hg (1034.3 mb)
Winds: from the NNW (330 degrees) at 15 MPH (13 knots; 6.7 m/s)
gusting to 20 MPH (17 knots; 8.7 m/s)
Visibility: 10 or more miles (16+ km)
Ceiling: at least 12,000 feet AGL
Clouds: sky clear below 12,000 feet AGL
Weather: automated observation with no human augmentation;
there may or may not be significant weather present at this time

Forecast for: KONP (NEWPORT , OR, US)
Text: KONP 262020Z 2620/2718 33010KT P6SM SKC
Forecast period: 2000 UTC 26 February 2020 to 1500 UTC 27 February 2020
Forecast type: FROM: standard forecast or significant change
Winds: from the NNW (330 degrees) at 12 MPH (10 knots; 5.1 m/s)
Visibility: 6 or more miles 10+ km)
Clouds: clear skies
Weather: no significant weather forecast for this period
Text: FM271500 06004KT 2SM BR SCT004
Forecast period: 1500 to 1800 UTC 27 February 2020
Forecast type: FROM: standard forecast or significant change
Winds: from the ENE (60 degrees) at 5 MPH (4 knots; 2.1 m/s)
Visibility: 2.00 miles (3.22 km)
Ceiling: at least 12,000 feet AGL
Clouds: scattered clouds at 400 feet AGL
Weather: BR  (mist)